Time;durP1;ratioP1;P1;durP2;ratioP2;P2;SDS_P1;SDS_P2;PMS_P1;PMS_P2;Temp;Humidity;BMP_temperature;BMP_pressure;BME280_temperature;BME280_humidity;BME280_pressure;Samples;Min_cycle;Max_cycle;Signal;HPM_P1;HPM_P2
2022/01/24 00:00:51;;;;;;;55.73;34.73;;;6.10;99.90;;;;;;5009886;28;20467;-68
2022/01/24 00:03:16;;;;;;;51.77;33.37;;;6.10;99.90;;;;;;5011287;28;20039;-68
2022/01/24 00:05:42;;;;;;;59.10;38.00;;;6.20;99.90;;;;;;5021763;28;20744;-67
2022/01/24 00:08:08;;;;;;;56.10;36.13;;;6.20;99.90;;;;;;5012411;28;20047;-68
2022/01/24 00:10:36;;;;;;;59.47;37.27;;;6.00;99.90;;;;;;5008340;28;20022;-68
2022/01/24 00:18:25;;;;;;;51.40;35.03;;;6.10;99.90;;;;;;5010195;28;20032;-68
2022/01/24 00:26:47;;;;;;;51.30;31.25;;;;;;;;;;4967311;28;20122;-68
2022/01/24 00:29:16;;;;;;;41.10;26.13;;;6.00;99.90;;;;;;4967588;28;20030;-68
2022/01/24 00:31:42;;;;;;;37.10;26.73;;;6.10;99.90;;;;;;4966700;28;20065;-68
2022/01/24 00:34:07;;;;;;;35.93;25.63;;;6.00;99.90;;;;;;4967269;28;20070;-68
2022/01/24 00:36:33;;;;;;;37.00;26.03;;;;;;;;;;4963652;28;20032;-68
2022/01/24 00:38:59;;;;;;;36.20;24.13;;;5.60;99.90;;;;;;4967518;28;20054;-68
2022/01/24 00:41:25;;;;;;;34.80;23.37;;;6.10;99.90;;;;;;4967026;28;20031;-68
2022/01/24 00:44:23;;;;;;;32.47;23.60;;;6.00;99.90;;;;;;4966417;28;20445;-68
2022/01/24 00:46:49;;;;;;;30.13;21.60;;;;;;;;;;4966351;28;20624;-68
2022/01/24 00:54:54;;;;;;;37.72;24.17;;;5.80;99.90;;;;;;4966794;28;20054;-68
2022/01/24 00:57:20;;;;;;;41.23;26.30;;;5.70;99.90;;;;;;4967542;28;20130;-68
2022/01/24 00:59:47;;;;;;;36.50;25.43;;;;;;;;;;5001598;28;20120;-68
2022/01/24 01:02:13;;;;;;;33.20;23.00;;;6.00;99.90;;;;;;5028592;28;20483;-68
2022/01/24 01:07:07;;;;;;;37.93;27.07;;;5.90;99.90;;;;;;5028432;28;20022;-68
2022/01/24 01:20:46;;;;;;;31.75;23.95;;;5.90;99.90;;;;;;5027319;28;20045;-68
2022/01/24 01:23:11;;;;;;;31.30;23.53;;;5.80;99.90;;;;;;5028199;28;20033;-68
2022/01/24 01:25:39;;;;;;;32.73;23.33;;;5.90;99.90;;;;;;5009847;28;20036;-68
2022/01/24 01:28:04;;;;;;;33.93;23.77;;;6.30;99.90;;;;;;5027384;28;20021;-68
2022/01/24 01:30:38;;;;;;;34.17;24.33;;;;;;;;;;5027037;28;20359;-68
2022/01/24 01:57:21;;;;;;;26.23;18.67;;;5.10;99.90;;;;;;5027592;28;20037;-68
2022/01/24 01:59:47;;;;;;;28.23;20.50;;;5.80;99.90;;;;;;5027149;28;20100;-68
2022/01/24 02:02:13;;;;;;;27.80;21.63;;;5.80;99.90;;;;;;5027151;28;20105;-68
2022/01/24 02:04:41;;;;;;;26.63;20.60;;;5.80;99.90;;;;;;5027213;28;20025;-68
2022/01/24 02:07:11;;;;;;;26.73;18.30;;;5.80;99.90;;;;;;5027558;28;20067;-68
2022/01/24 02:09:40;;;;;;;25.23;18.57;;;5.80;99.90;;;;;;5027283;28;20028;-68
2022/01/24 02:12:06;;;;;;;25.33;18.90;;;5.70;99.90;;;;;;5027169;28;20076;-68
2022/01/24 02:14:36;;;;;;;24.23;18.80;;;6.00;99.90;;;;;;5027104;28;20030;-68
2022/01/24 02:17:09;;;;;;;28.77;19.33;;;5.80;99.90;;;;;;5027176;28;20022;-68
2022/01/24 02:19:51;;;;;;;27.57;19.83;;;5.90;99.90;;;;;;5026885;28;20025;-68
2022/01/24 02:22:43;;;;;;;27.90;20.97;;;5.80;99.90;;;;;;5009729;28;20129;-68
2022/01/24 02:25:11;;;;;;;25.70;17.73;;;;;;;;;;5026803;28;20045;-68
2022/01/24 02:27:47;;;;;;;27.25;20.40;;;5.60;99.90;;;;;;5027150;28;20033;-68
2022/01/24 02:30:37;;;;;;;26.03;17.30;;;5.70;99.90;;;;;;5008120;28;20030;-68
2022/01/24 02:32:58;;;;;;;27.77;20.73;;;5.90;99.90;;;;;;5015619;28;20064;-68
2022/01/24 02:35:23;;;;;;;24.97;18.67;;;5.80;99.90;;;;;;5027069;28;20025;-68
2022/01/24 02:37:49;;;;;;;28.03;19.50;;;5.70;99.90;;;;;;5027104;28;20088;-68
2022/01/24 02:40:18;;;;;;;26.03;18.70;;;;;;;;;;5027366;28;20033;-68
2022/01/24 02:51:11;;;;;;;26.90;20.97;;;5.70;99.90;;;;;;5029902;28;20101;-68
2022/01/24 02:53:36;;;;;;;31.03;20.57;;;5.60;99.90;;;;;;5041977;28;20128;-68
2022/01/24 02:56:04;;;;;;;30.10;20.30;;;5.70;99.90;;;;;;5050420;28;20112;-68
2022/01/24 02:58:30;;;;;;;29.10;21.10;;;5.70;99.90;;;;;;5042560;28;20057;-68
2022/01/24 03:00:56;;;;;;;29.90;22.20;;;5.60;99.90;;;;;;5030103;28;20040;-68
2022/01/24 03:03:23;;;;;;;31.73;20.73;;;5.70;99.90;;;;;;5030382;28;20147;-68
2022/01/24 03:05:49;;;;;;;28.93;19.23;;;5.80;99.90;;;;;;5029789;28;20029;-68
2022/01/24 03:08:15;;;;;;;30.37;20.97;;;5.60;99.90;;;;;;5030222;28;20044;-68
2022/01/24 03:10:46;;;;;;;26.07;18.97;;;5.60;99.90;;;;;;5027494;28;20021;-68
2022/01/24 03:15:53;;;;;;;25.17;17.53;;;5.60;99.90;;;;;;5027601;28;20060;-68
2022/01/24 03:18:19;;;;;;;23.63;17.43;;;5.50;99.90;;;;;;5027708;28;20060;-68
2022/01/24 03:20:45;;;;;;;23.00;17.30;;;5.50;99.90;;;;;;5027553;28;20026;-68
2022/01/24 03:23:15;;;;;;;24.83;17.93;;;6.70;99.90;;;;;;5027878;28;20029;-68
2022/01/24 03:25:41;;;;;;;22.63;15.67;;;5.50;99.90;;;;;;5028013;28;20025;-68
2022/01/24 03:28:07;;;;;;;25.83;17.93;;;;;;;;;;5029864;28;20026;-68
2022/01/24 03:30:34;;;;;;;23.53;17.70;;;5.40;99.90;;;;;;5028867;28;20030;-68
2022/01/24 03:33:00;;;;;;;21.80;17.23;;;5.50;99.90;;;;;;5029164;28;20057;-68
2022/01/24 03:35:27;;;;;;;24.30;17.13;;;;;;;;;;5029213;28;20109;-68
2022/01/24 03:37:53;;;;;;;26.13;19.27;;;5.30;99.90;;;;;;5029065;28;20060;-67
2022/01/24 03:40:19;;;;;;;24.70;18.47;;;5.40;99.90;;;;;;5029974;28;20368;-69
2022/01/24 03:42:45;;;;;;;27.10;19.63;;;5.30;99.90;;;;;;5028458;28;20025;-67
2022/01/24 03:45:12;;;;;;;22.57;17.40;;;;;;;;;;5029020;28;20487;-67
2022/01/24 03:50:11;;;;;;;23.20;17.50;;;5.20;99.90;;;;;;5029450;28;20490;-67
2022/01/24 03:52:37;;;;;;;26.33;17.70;;;5.20;99.90;;;;;;5010743;28;20100;-67
2022/01/24 03:55:04;;;;;;;25.37;17.73;;;5.00;99.90;;;;;;5028127;28;20132;-67
2022/01/24 03:57:30;;;;;;;23.17;17.20;;;;;;;;;;5028573;28;20040;-68
2022/01/24 03:59:56;;;;;;;23.97;16.83;;;;;;;;;;5028060;28;20026;-67
2022/01/24 04:02:25;;;;;;;24.40;15.67;;;5.20;99.90;;;;;;5029029;28;20033;-67
2022/01/24 04:04:51;;;;;;;28.27;18.53;;;5.60;99.90;;;;;;5011050;28;20029;-68
2022/01/24 04:07:17;;;;;;;24.53;17.70;;;;;;;;;;5029214;28;20075;-67
2022/01/24 04:09:43;;;;;;;25.10;17.37;;;5.10;99.90;;;;;;5028595;28;20128;-67
2022/01/24 04:12:10;;;;;;;25.83;18.83;;;5.20;99.90;;;;;;5028527;28;20037;-67
2022/01/24 04:22:27;;;;;;;27.77;18.20;;;5.20;99.90;;;;;;5028744;28;20045;-67
2022/01/24 04:25:00;;;;;;;28.45;19.58;;;5.30;99.90;;;;;;5028901;28;20044;-68
2022/01/24 04:27:27;;;;;;;29.70;19.45;;;5.40;99.90;;;;;;5027941;28;20022;-67
2022/01/24 04:29:53;;;;;;;31.17;20.70;;;;;;;;;;5028578;28;20030;-68
2022/01/24 04:32:19;;;;;;;23.33;15.83;;;5.80;99.90;;;;;;5011225;28;20115;-68
2022/01/24 04:34:46;;;;;;;26.30;18.47;;;;;;;;;;5020013;28;20072;-68
2022/01/24 04:37:11;;;;;;;26.47;18.83;;;5.30;99.90;;;;;;5028884;28;20041;-68
2022/01/24 04:39:37;;;;;;;27.13;19.47;;;5.20;99.90;;;;;;5027705;28;20382;-67
2022/01/24 04:42:11;;;;;;;28.43;19.43;;;5.40;99.90;;;;;;5027587;28;20033;-67
2022/01/24 04:52:20;;;;;;;29.40;21.38;;;5.20;99.90;;;;;;5028219;28;20505;-67
2022/01/24 04:54:46;;;;;;;26.73;19.27;;;5.30;99.90;;;;;;5027455;28;20083;-67
2022/01/24 04:57:20;;;;;;;29.43;21.10;;;5.30;99.90;;;;;;5028001;28;20022;-67
2022/01/24 04:59:47;;;;;;;;;;;5.40;99.90;;;;;;5027915;28;20097;-67
2022/01/24 05:02:14;;;;;;;26.70;18.57;;;5.30;99.90;;;;;;5028292;28;19905;-67
2022/01/24 05:04:40;;;;;;;29.27;20.10;;;;;;;;;;5027345;28;20087;-69
2022/01/24 05:07:06;;;;;;;27.33;18.93;;;5.30;99.90;;;;;;5027501;28;20054;-67
2022/01/24 05:25:51;;;;;;;24.90;18.37;;;5.30;99.90;;;;;;5027293;28;20345;-68
2022/01/24 05:28:17;;;;;;;27.63;17.73;;;;;;;;;;5028077;28;20151;-68
2022/01/24 05:30:43;;;;;;;25.87;17.27;;;5.40;99.90;;;;;;5007664;28;20557;-67
2022/01/24 05:33:08;;;;;;;25.97;18.10;;;5.30;99.90;;;;;;4990649;28;20451;-68
2022/01/24 05:35:34;;;;;;;25.60;16.63;;;5.20;99.90;;;;;;5017332;28;20041;-68
2022/01/24 05:37:59;;;;;;;27.07;18.37;;;5.30;99.90;;;;;;4992048;28;20030;-68
2022/01/24 05:40:25;;;;;;;25.00;17.53;;;;;;;;;;5007684;28;20022;-68
2022/01/24 05:42:51;;;;;;;24.17;17.03;;;;;;;;;;5007896;28;20038;-68
2022/01/24 05:45:17;;;;;;;26.40;17.57;;;4.70;99.90;;;;;;5008444;28;20048;-67
2022/01/24 05:47:43;;;;;;;25.60;17.47;;;5.30;99.90;;;;;;5007589;28;20100;-68
2022/01/24 05:50:08;;;;;;;31.37;18.73;;;5.20;99.90;;;;;;5012912;28;20084;-67
2022/01/24 05:52:34;;;;;;;24.43;15.97;;;5.30;99.90;;;;;;5007516;28;20033;-67
2022/01/24 05:55:00;;;;;;;26.43;18.23;;;5.20;99.90;;;;;;5007731;28;20890;-67
2022/01/24 05:57:27;;;;;;;25.47;17.30;;;5.60;99.90;;;;;;5007937;28;20046;-67
2022/01/24 05:59:53;;;;;;;27.97;19.30;;;;;;;;;;5007724;28;20040;-67
2022/01/24 06:02:18;;;;;;;25.87;17.83;;;5.20;99.90;;;;;;5008008;28;20033;-67
2022/01/24 06:04:45;;;;;;;23.27;15.87;;;;;;;;;;5011861;28;20029;-68
2022/01/24 06:07:10;;;;;;;24.87;16.20;;;5.10;99.90;;;;;;5027458;28;20503;-68
2022/01/24 06:09:36;;;;;;;22.67;16.50;;;;;;;;;;5026770;28;20108;-68
2022/01/24 06:12:02;;;;;;;26.23;17.77;;;5.10;99.90;;;;;;5027601;28;20072;-67
2022/01/24 06:14:28;;;;;;;21.57;15.50;;;;;;;;;;5008901;28;20068;-67
2022/01/24 06:16:53;;;;;;;27.03;18.80;;;5.20;99.90;;;;;;5027525;28;20021;-67
2022/01/24 06:19:19;;;;;;;23.07;16.73;;;;;;;;;;5031694;28;20026;-67
2022/01/24 06:21:45;;;;;;;25.37;17.33;;;5.20;99.90;;;;;;5012868;28;20104;-67
2022/01/24 06:24:12;;;;;;;26.63;18.07;;;5.10;99.90;;;;;;5013178;28;20032;-67
2022/01/24 06:26:39;;;;;;;24.33;17.33;;;5.10;99.90;;;;;;5030945;28;20508;-67
2022/01/24 06:29:05;;;;;;;23.20;16.27;;;;;;;;;;5013122;28;20714;-67
2022/01/24 06:31:30;;;;;;;23.10;16.97;;;5.10;99.90;;;;;;5030890;28;20032;-67
2022/01/24 06:33:56;;;;;;;23.13;16.40;;;5.10;99.90;;;;;;5031009;28;20037;-67
2022/01/24 06:36:22;;;;;;;19.97;13.63;;;;;;;;;;5031248;28;20025;-67
2022/01/24 06:38:48;;;;;;;22.87;16.20;;;;;;;;;;5012503;28;20470;-67
2022/01/24 06:41:21;;;;;;;21.13;14.70;;;5.10;99.90;;;;;;5031295;28;20033;-67
2022/01/24 06:43:47;;;;;;;25.10;16.30;;;5.20;99.90;;;;;;5030548;28;20033;-67
2022/01/24 06:46:13;;;;;;;19.67;15.70;;;5.20;99.90;;;;;;5012054;28;20025;-68
2022/01/24 06:48:38;;;;;;;22.57;16.43;;;5.00;99.90;;;;;;5030172;28;20037;-68
2022/01/24 06:51:10;;;;;;;23.20;15.23;;;;;;;;;;5030708;28;20029;-67
2022/01/24 06:53:36;;;;;;;21.53;15.60;;;;;;;;;;5029847;28;20120;-68
2022/01/24 06:56:01;;;;;;;24.67;17.00;;;5.10;99.90;;;;;;5030555;28;20067;-68
2022/01/24 06:58:28;;;;;;;27.20;20.23;;;5.00;99.90;;;;;;5027020;28;20025;-68
2022/01/24 07:00:54;;;;;;;24.43;18.73;;;5.00;99.90;;;;;;4998372;28;20025;-67
2022/01/24 07:03:19;;;;;;;26.90;19.87;;;5.10;99.90;;;;;;5011152;28;20375;-68
2022/01/24 07:05:45;;;;;;;23.60;17.97;;;;;;;;;;5019003;28;20021;-71
2022/01/24 07:08:10;;;;;;;25.97;18.27;;;5.30;99.90;;;;;;5011585;28;20041;-70
2022/01/24 07:10:36;;;;;;;22.57;16.43;;;4.90;99.90;;;;;;5012247;28;20324;-70
2022/01/24 07:13:02;;;;;;;26.93;20.07;;;4.90;99.90;;;;;;5029848;28;20148;-72
2022/01/24 07:15:34;;;;;;;27.10;19.13;;;;;;;;;;5030260;28;20060;-70
2022/01/24 07:20:35;;;;;;;23.37;18.83;;;;;;;;;;5030024;28;20463;-69
2022/01/24 07:23:01;;;;;;;23.63;16.87;;;5.30;99.90;;;;;;5023778;28;20743;-69
2022/01/24 07:25:26;;;;;;;25.70;18.73;;;4.70;99.90;;;;;;5036632;28;20037;-69
2022/01/24 07:27:52;;;;;;;22.13;15.93;;;;;;;;;;5029767;28;20037;-70
2022/01/24 07:30:18;;;;;;;20.80;16.57;;;;;;;;;;5030111;28;20513;-69
2022/01/24 07:32:44;;;;;;;25.07;17.47;;;5.00;99.90;;;;;;5029440;28;20041;-70
2022/01/24 07:35:09;;;;;;;25.10;17.97;;;5.00;99.90;;;;;;5012142;28;20076;-70
2022/01/24 07:37:35;;;;;;;19.33;16.80;;;;;;;;;;5029130;28;20034;-70
2022/01/24 07:40:05;;;;;;;26.27;18.83;;;;;;;;;;5012050;28;20044;-69
2022/01/24 07:42:52;;;;;;;22.93;17.27;;;5.00;99.90;;;;;;5029331;28;20026;-70
2022/01/24 07:45:18;;;;;;;24.73;18.13;;;4.90;99.90;;;;;;5025593;28;20033;-69
2022/01/24 07:47:43;;;;;;;23.27;16.03;;;5.10;99.90;;;;;;5028427;28;20042;-69
2022/01/24 07:50:09;;;;;;;23.97;18.30;;;;;;;;;;5029052;28;20032;-69
2022/01/24 07:52:36;;;;;;;21.97;16.07;;;4.60;99.90;;;;;;5029036;28;20037;-69
2022/01/24 07:55:02;;;;;;;21.03;15.43;;;;;;;;;;5029533;28;20033;-69
2022/01/24 07:57:28;;;;;;;22.60;17.37;;;;;;;;;;5029108;28;20034;-70
2022/01/24 07:59:53;;;;;;;22.20;17.57;;;;;;;;;;5011232;28;20076;-69
2022/01/24 08:02:19;;;;;;;21.07;16.87;;;5.00;99.90;;;;;;5011743;28;20029;-69
2022/01/24 08:04:44;;;;;;;21.27;16.40;;;5.10;99.90;;;;;;5028348;28;20056;-69
2022/01/24 08:07:10;;;;;;;21.23;16.97;;;;;;;;;;5029286;28;20466;-69
2022/01/24 08:09:36;;;;;;;20.33;15.67;;;;;;;;;;5028430;28;20047;-69
2022/01/24 08:12:02;;;;;;;20.47;14.50;;;;;;;;;;5028614;28;20088;-69
2022/01/24 08:14:28;;;;;;;22.10;15.43;;;5.30;99.90;;;;;;5028340;28;20498;-69
2022/01/24 08:16:54;;;;;;;19.60;14.87;;;4.80;99.90;;;;;;5028731;28;20056;-69
2022/01/24 08:19:19;;;;;;;20.50;16.27;;;5.20;99.90;;;;;;5010711;28;20037;-69
2022/01/24 08:21:45;;;;;;;19.90;14.67;;;;;;;;;;5028346;28;20393;-69
2022/01/24 08:24:12;;;;;;;23.60;18.27;;;5.30;99.90;;;;;;5029206;28;20052;-69
2022/01/24 08:26:38;;;;;;;22.07;16.93;;;5.20;99.90;;;;;;5028356;28;20099;-69
2022/01/24 08:29:04;;;;;;;21.53;17.10;;;5.10;99.90;;;;;;5028731;28;20437;-69
2022/01/24 08:31:30;;;;;;;21.97;17.40;;;5.20;99.90;;;;;;5028291;28;20043;-69
2022/01/24 08:33:56;;;;;;;22.97;17.20;;;5.10;99.90;;;;;;5010531;28;20037;-69
2022/01/24 08:36:22;;;;;;;19.13;15.13;;;;;;;;;;5028759;28;20083;-69
2022/01/24 08:38:50;;;;;;;20.30;15.10;;;;;;;;;;5027945;28;20033;-69
2022/01/24 08:41:25;;;;;;;21.00;14.90;;;5.00;99.90;;;;;;5038267;28;20106;-69
2022/01/24 08:43:58;;;;;;;23.57;16.33;;;5.40;99.90;;;;;;5048265;28;20100;-68
2022/01/24 08:46:24;;;;;;;24.00;17.13;;;5.30;99.90;;;;;;5047353;28;20116;-68
2022/01/24 08:48:50;;;;;;;21.03;17.03;;;5.30;99.90;;;;;;5011667;28;20124;-69
2022/01/24 08:51:16;;;;;;;22.23;16.03;;;5.30;99.90;;;;;;5016747;28;20025;-68
2022/01/24 08:53:42;;;;;;;17.57;14.73;;;5.50;99.90;;;;;;5027215;28;20042;-69
2022/01/24 08:56:10;;;;;;;16.90;13.73;;;;;;;;;;5028243;28;20067;-69
2022/01/24 08:58:36;;;;;;;17.27;12.70;;;;;;;;;;5027840;28;20078;-69
2022/01/24 09:01:02;;;;;;;16.23;14.43;;;5.60;99.90;;;;;;5010040;28;20037;-69
2022/01/24 09:03:32;;;;;;;20.57;15.40;;;;;;;;;;5027415;28;20040;-68
2022/01/24 09:06:00;;;;;;;21.17;15.17;;;;;;;;;;5028267;28;20025;-68
2022/01/24 09:08:26;;;;;;;24.17;15.50;;;;;;;;;;5024799;28;20493;-68
2022/01/24 09:10:52;;;;;;;18.90;15.97;;;5.70;99.90;;;;;;5027568;28;20021;-68
2022/01/24 09:13:19;;;;;;;16.80;14.50;;;5.80;99.90;;;;;;5028039;28;20107;-68
2022/01/24 09:15:45;;;;;;;15.20;13.50;;;5.60;99.90;;;;;;5026910;28;20026;-68
2022/01/24 09:18:11;;;;;;;18.97;14.13;;;5.70;99.90;;;;;;5027771;28;20034;-69
2022/01/24 09:20:38;;;;;;;16.93;13.77;;;5.60;99.90;;;;;;5029108;28;20033;-69
2022/01/24 09:23:06;;;;;;;19.70;14.03;;;5.70;99.90;;;;;;5038437;28;20025;-68
2022/01/24 09:25:31;;;;;;;15.27;12.80;;;5.60;99.90;;;;;;5026013;28;20062;-68
2022/01/24 09:27:57;;;;;;;16.90;13.37;;;;;;;;;;5027770;28;20091;-69
2022/01/24 09:30:24;;;;;;;19.43;14.17;;;5.60;99.90;;;;;;5027394;28;20029;-68
2022/01/24 09:32:50;;;;;;;18.03;13.87;;;5.80;99.90;;;;;;5032436;28;20024;-68
2022/01/24 09:35:17;;;;;;;17.43;13.00;;;5.70;99.90;;;;;;5030079;28;20540;-69
2022/01/24 09:37:46;;;;;;;18.83;14.40;;;5.80;99.90;;;;;;5027133;28;20052;-68
2022/01/24 09:40:13;;;;;;;19.47;13.37;;;5.80;99.90;;;;;;5027579;28;20063;-68
2022/01/24 09:42:40;;;;;;;15.77;13.67;;;5.80;99.90;;;;;;5027437;28;20064;-69
2022/01/24 09:45:07;;;;;;;16.73;14.13;;;6.40;99.90;;;;;;5027549;28;20021;-68
2022/01/24 09:47:33;;;;;;;18.70;14.70;;;5.90;99.90;;;;;;5026969;28;20025;-67
2022/01/24 09:49:59;;;;;;;17.17;14.77;;;;;;;;;;5026926;28;20022;-67
2022/01/24 09:52:25;;;;;;;14.70;12.63;;;6.10;99.90;;;;;;5030041;28;20034;-67
2022/01/24 09:54:51;;;;;;;17.83;13.93;;;6.00;99.90;;;;;;5031452;28;20033;-70
2022/01/24 09:57:16;;;;;;;20.13;16.37;;;6.00;99.90;;;;;;5014101;28;20436;-69
2022/01/24 09:59:42;;;;;;;22.93;16.20;;;;;;;;;;5031198;28;20052;-70
2022/01/24 10:02:08;;;;;;;17.97;15.60;;;;;;;;;;5034911;28;20030;-68
2022/01/24 10:04:34;;;;;;;19.37;16.07;;;5.90;99.90;;;;;;5036894;28;20123;-68
2022/01/24 10:07:16;;;;;;;18.60;14.73;;;5.80;99.90;;;;;;5020947;28;20028;-68
2022/01/24 10:09:49;;;;;;;18.53;14.97;;;6.10;99.90;;;;;;5011167;28;20037;-69
2022/01/24 10:17:49;;;;;;;18.17;14.83;;;5.90;99.90;;;;;;5030688;28;20036;-68
2022/01/24 10:20:34;;;;;;;19.20;15.83;;;5.90;99.90;;;;;;5041128;28;20419;-68
2022/01/24 10:23:07;;;;;;;16.63;14.80;;;6.00;99.90;;;;;;5038420;28;20097;-68
2022/01/24 10:26:05;;;;;;;18.50;15.60;;;5.90;99.90;;;;;;5021208;28;20092;-68
2022/01/24 10:28:34;;;;;;;15.67;14.03;;;5.90;99.90;;;;;;5020046;28;20490;-68
2022/01/24 10:31:16;;;;;;;16.80;15.00;;;6.00;99.90;;;;;;5030294;28;20025;-68
2022/01/24 10:34:25;;;;;;;15.73;13.93;;;6.10;99.90;;;;;;5020339;28;20153;-69
2022/01/24 10:36:53;;;;;;;18.87;16.87;;;5.90;99.90;;;;;;5030562;28;20422;-68
2022/01/24 10:39:28;;;;;;;17.23;15.43;;;6.00;99.90;;;;;;5031003;28;20049;-69
2022/01/24 10:44:56;;;;;;;17.23;15.07;;;5.70;99.90;;;;;;5030626;28;20026;-68
2022/01/24 10:47:27;;;;;;;16.60;13.47;;;6.10;99.90;;;;;;5030668;28;20025;-69
2022/01/24 10:49:53;;;;;;;18.50;15.93;;;6.00;99.90;;;;;;5030865;28;20148;-69
2022/01/24 10:52:26;;;;;;;20.10;17.30;;;6.10;99.90;;;;;;5030778;28;20453;-69
2022/01/24 10:55:09;;;;;;;22.00;19.53;;;6.00;99.90;;;;;;5030172;28;20117;-69
2022/01/24 10:57:34;;;;;;;23.57;17.90;;;;;;;;;;5030257;28;20432;-69
2022/01/24 11:00:22;;;;;;;19.23;17.20;;;6.00;99.90;;;;;;5030036;28;20034;-69
2022/01/24 11:02:50;;;;;;;19.30;15.07;;;6.00;99.90;;;;;;5029876;28;20934;-68
2022/01/24 11:05:22;;;;;;;22.27;18.23;;;6.20;99.90;;;;;;5029405;28;20060;-68
2022/01/24 11:07:50;;;;;;;18.40;14.80;;;6.00;99.90;;;;;;5029990;28;20482;-69
2022/01/24 11:10:16;;;;;;;18.00;15.33;;;6.00;99.90;;;;;;5030307;28;20447;-70
2022/01/24 11:12:42;;;;;;;17.60;14.90;;;;;;;;;;5029611;28;20064;-70
2022/01/24 11:15:10;;;;;;;17.60;15.60;;;6.00;99.90;;;;;;5029780;28;20029;-70
2022/01/24 11:17:36;;;;;;;15.93;14.23;;;6.10;99.90;;;;;;5045465;28;20029;-70
2022/01/24 11:20:03;;;;;;;33.93;19.37;;;;;;;;;;5031305;28;20028;-67
2022/01/24 11:22:31;;;;;;;19.23;16.77;;;6.10;99.90;;;;;;5029292;28;20375;-67
2022/01/24 11:25:02;;;;;;;16.90;14.03;;;6.20;99.90;;;;;;5012497;28;20445;-68
2022/01/24 11:27:28;;;;;;;17.20;15.00;;;;;;;;;;5037222;28;20033;-68
2022/01/24 11:29:57;;;;;;;18.63;15.87;;;6.10;99.90;;;;;;5029363;28;20419;-70
2022/01/24 11:32:50;;;;;;;16.27;13.70;;;6.10;99.90;;;;;;5029465;28;20041;-68
2022/01/24 11:35:43;;;;;;;20.43;16.60;;;6.10;99.90;;;;;;5012072;28;20033;-68
2022/01/24 11:38:27;;;;;;;18.23;14.77;;;6.20;99.90;;;;;;5018890;28;20111;-68
2022/01/24 11:41:02;;;;;;;16.03;14.33;;;6.10;99.90;;;;;;5029400;28;20037;-68
2022/01/24 11:43:33;;;;;;;16.07;13.10;;;6.30;99.90;;;;;;5028497;28;20022;-68
2022/01/24 11:46:05;;;;;;;17.57;14.83;;;;;;;;;;5029699;28;20108;-69
2022/01/24 11:48:32;;;;;;;14.97;12.33;;;;;;;;;;5029167;28;20018;-69
2022/01/24 11:51:07;;;;;;;14.67;13.10;;;6.10;99.90;;;;;;5029038;28;20057;-68
2022/01/24 11:53:38;;;;;;;14.57;12.43;;;6.20;99.90;;;;;;5028904;28;20049;-68
2022/01/24 11:56:22;;;;;;;13.93;12.53;;;6.30;99.90;;;;;;5029544;28;20083;-69
2022/01/24 11:58:48;;;;;;;12.38;11.18;;;6.20;99.90;;;;;;5028666;28;20135;-69
2022/01/24 12:01:37;;;;;;;14.90;12.70;;;6.30;99.90;;;;;;5027201;28;20482;-69
2022/01/24 12:04:03;;;;;;;15.73;14.17;;;6.20;99.90;;;;;;5021001;28;20029;-69
2022/01/24 12:06:28;;;;;;;20.23;15.07;;;6.10;99.90;;;;;;5028996;28;20044;-70
2022/01/24 12:09:03;;;;;;;16.90;15.20;;;6.20;99.90;;;;;;5029008;28;20026;-69
2022/01/24 12:11:33;;;;;;;17.80;15.57;;;6.10;99.90;;;;;;5010495;28;20425;-69
2022/01/24 12:14:12;;;;;;;18.43;16.33;;;6.20;99.90;;;;;;5028593;28;20060;-69
2022/01/24 12:16:42;;;;;;;18.53;16.63;;;6.00;99.90;;;;;;5027742;28;20056;-69
2022/01/24 12:19:10;;;;;;;17.53;15.77;;;6.20;99.90;;;;;;5029241;28;20041;-69
2022/01/24 12:21:41;;;;;;;17.53;14.53;;;6.20;99.90;;;;;;5028418;28;20021;-69
2022/01/24 12:24:12;;;;;;;20.37;18.17;;;6.20;99.90;;;;;;5028625;28;20021;-69
2022/01/24 12:26:43;;;;;;;19.33;17.33;;;6.20;99.90;;;;;;5027898;28;20474;-69
2022/01/24 12:29:12;;;;;;;16.77;15.07;;;6.30;99.90;;;;;;5028579;28;20052;-69
2022/01/24 12:31:58;;;;;;;16.30;14.63;;;6.20;99.90;;;;;;5028157;28;20033;-69
2022/01/24 12:34:37;;;;;;;15.33;13.73;;;6.20;99.90;;;;;;5028620;28;20033;-69
2022/01/24 12:37:11;;;;;;;15.07;13.57;;;6.20;99.90;;;;;;5010994;28;20029;-69
2022/01/24 12:39:57;;;;;;;17.13;15.32;;;6.40;99.90;;;;;;5027934;28;20383;-69
2022/01/24 12:42:41;;;;;;;16.50;14.90;;;6.20;99.90;;;;;;5027781;28;20022;-69
2022/01/24 12:47:57;;;;;;;14.97;13.07;;;;;;;;;;5029171;28;20608;-69
2022/01/24 12:50:24;;;;;;;18.53;16.63;;;5.20;99.90;;;;;;5028303;28;20112;-69
2022/01/24 12:52:51;;;;;;;17.30;15.37;;;6.40;99.90;;;;;;5028097;28;20112;-68
2022/01/24 12:55:17;;;;;;;17.73;16.03;;;6.30;99.90;;;;;;5009789;28;20038;-69
2022/01/24 12:57:43;;;;;;;17.13;15.07;;;6.50;99.90;;;;;;5027744;28;20155;-69
2022/01/24 13:00:17;;;;;;;19.07;17.00;;;6.40;99.90;;;;;;5010376;28;20430;-69
2022/01/24 13:02:43;;;;;;;;;;;6.50;99.90;;;;;;5028060;28;20056;-69
2022/01/24 13:05:15;;;;;;;18.43;16.33;;;6.40;99.90;;;;;;5028269;28;19925;-69
2022/01/24 13:07:48;;;;;;;19.40;17.43;;;6.40;99.90;;;;;;5027441;28;20026;-69
2022/01/24 13:10:18;;;;;;;17.73;15.83;;;6.40;99.90;;;;;;5027694;28;20033;-69
2022/01/24 13:12:44;;;;;;;21.50;19.27;;;6.30;99.90;;;;;;5026449;28;20037;-69
2022/01/24 13:15:25;;;;;;;22.67;20.20;;;6.30;99.90;;;;;;5027982;28;20025;-69
2022/01/24 13:21:06;;;;;;;20.48;18.50;;;6.50;99.90;;;;;;5027389;28;20036;-69
2022/01/24 13:23:26;;;;;;;21.23;19.13;;;6.10;99.90;;;;;;5026662;28;20021;-69
2022/01/24 13:25:52;;;;;;;22.00;19.90;;;;;;;;;;5026664;28;20336;-69
2022/01/24 13:28:19;;;;;;;21.17;19.10;;;6.10;99.90;;;;;;5027951;28;20034;-69
2022/01/24 13:30:46;;;;;;;21.80;19.70;;;;;;;;;;5012966;28;20129;-69
2022/01/24 13:33:16;;;;;;;20.37;18.30;;;6.40;99.90;;;;;;5022521;28;20033;-69
2022/01/24 13:35:44;;;;;;;24.60;22.23;;;6.40;99.90;;;;;;5022535;28;20034;-69
2022/01/24 13:38:20;;;;;;;26.57;23.77;;;6.20;99.90;;;;;;4990316;28;20143;-69
2022/01/24 13:41:06;;;;;;;25.83;23.13;;;4.80;99.90;;;;;;5009837;28;20192;-69
2022/01/24 13:43:58;;;;;;;23.23;20.83;;;6.10;99.90;;;;;;5019456;28;20036;-69
2022/01/24 13:46:34;;;;;;;22.03;18.53;;;6.40;99.90;;;;;;5016514;28;20018;-69
2022/01/24 13:49:08;;;;;;;19.87;17.70;;;6.20;99.90;;;;;;5017853;28;20037;-69
2022/01/24 13:51:43;;;;;;;19.55;17.55;;;6.50;99.90;;;;;;5025278;28;20025;-69
2022/01/24 13:54:11;;;;;;;22.17;19.87;;;6.50;99.90;;;;;;5024660;28;20033;-69
2022/01/24 13:56:43;;;;;;;21.07;18.90;;;6.50;99.90;;;;;;5025496;28;20026;-69
2022/01/24 13:59:19;;;;;;;23.43;21.13;;;6.40;99.90;;;;;;5025683;28;20018;-69
2022/01/24 14:01:55;;;;;;;22.73;20.33;;;6.50;99.90;;;;;;5017152;28;20521;-69
2022/01/24 14:04:36;;;;;;;22.90;20.47;;;6.30;99.90;;;;;;5036286;28;20051;-70
2022/01/24 14:07:05;;;;;;;22.33;20.13;;;6.40;99.90;;;;;;5034112;28;20421;-70
2022/01/24 14:09:34;;;;;;;22.63;20.53;;;6.30;99.90;;;;;;5026633;28;20032;-70
2022/01/24 14:12:01;;;;;;;23.93;21.63;;;6.40;99.90;;;;;;5027496;28;20026;-71
2022/01/24 14:14:37;;;;;;;29.90;26.83;;;6.30;99.90;;;;;;5027005;28;20348;-70
2022/01/24 14:17:53;;;;;;;27.90;25.00;;;6.30;99.90;;;;;;5027291;28;20328;-70
2022/01/24 14:19:55;;;;;;;26.67;24.03;;;6.00;99.90;;;;;;5018716;28;20517;-70
2022/01/24 14:22:21;;;;;;;23.17;20.90;;;6.70;99.90;;;;;;5009507;28;20025;-70
2022/01/24 14:24:57;;;;;;;21.87;19.57;;;6.40;99.90;;;;;;5026395;28;20021;-70
2022/01/24 14:27:58;;;;;;;28.57;25.67;;;6.50;99.90;;;;;;5027104;28;20111;-70
2022/01/24 14:30:26;;;;;;;25.13;22.57;;;6.30;99.90;;;;;;4927293;29;20147;-70
2022/01/24 14:33:09;;;;;;;23.13;20.80;;;6.60;99.90;;;;;;4927470;29;20067;-71
2022/01/24 14:35:38;;;;;;;25.87;23.37;;;6.40;99.90;;;;;;4927132;29;20124;-71
2022/01/24 14:38:06;;;;;;;27.30;24.10;;;6.00;99.90;;;;;;4927423;29;20046;-70
2022/01/24 14:40:51;;;;;;;24.37;21.83;;;6.10;99.90;;;;;;4930949;29;20035;-71
2022/01/24 14:46:08;;;;;;;25.10;22.63;;;6.30;99.90;;;;;;4930929;29;20051;-70
2022/01/24 14:48:47;;;;;;;24.20;21.80;;;6.40;99.90;;;;;;4930786;29;20032;-70
2022/01/24 14:51:13;;;;;;;26.67;23.87;;;6.20;99.90;;;;;;4930963;29;20116;-70
2022/01/24 14:53:39;;;;;;;26.73;23.97;;;6.10;99.90;;;;;;4930707;29;20058;-70
2022/01/24 14:56:04;;;;;;;30.13;26.27;;;6.30;99.90;;;;;;4930832;29;20028;-70
2022/01/24 14:58:30;;;;;;;26.00;23.30;;;;;;;;;;4930420;29;20028;-70
2022/01/24 15:00:56;;;;;;;28.63;23.23;;;6.20;99.90;;;;;;4930664;29;20091;-69
2022/01/24 15:03:22;;;;;;;27.47;24.60;;;;;;;;;;4931310;29;20059;-70
2022/01/24 15:05:48;;;;;;;25.10;22.60;;;;;;;;;;4965286;28;20462;-70
2022/01/24 15:08:13;;;;;;;23.97;21.57;;;6.30;99.90;;;;;;5011104;28;20037;-71